createdAt,value
2023-04-29T00:03:52.709Z,65.43
2023-04-29T00:08:55.541Z,63.85
2023-04-29T00:13:59.548Z,66.30
2023-04-29T00:19:02.235Z,62.85
2023-04-29T00:24:04.983Z,66.17
2023-04-29T00:29:08.917Z,57.33
2023-04-29T00:34:11.733Z,64.60
2023-04-29T00:39:15.472Z,64.32
2023-04-29T00:44:19.519Z,60.53
2023-04-29T00:49:22.448Z,68.82
2023-04-29T00:54:25.499Z,61.75
2023-04-29T00:59:32.166Z,60.25
2023-04-29T01:04:35.036Z,55.88
2023-04-29T01:09:56.812Z,55.03
2023-04-29T01:15:05.757Z,54.70
2023-04-29T01:20:10.817Z,51.70
2023-04-29T01:25:14.765Z,52.35
2023-04-29T01:30:29.147Z,50.63
2023-04-29T01:35:45.723Z,45.67
2023-04-29T01:40:59.139Z,52.20
2023-04-29T01:46:04.321Z,43.38
2023-04-29T01:51:07.375Z,41.25
2023-04-29T01:56:11.445Z,46.40
2023-04-29T02:01:14.334Z,45.35
2023-04-29T02:06:17.036Z,40.40
2023-04-29T02:11:21.053Z,41.40
2023-04-29T02:16:23.701Z,45.08
2023-04-29T02:21:27.135Z,46.60
2023-04-29T02:26:31.167Z,40.25
2023-04-29T02:31:33.880Z,43.60
2023-04-29T02:36:36.595Z,44.20
2023-04-29T02:41:40.724Z,45.43
2023-04-29T02:46:45.744Z,39.60
2023-04-29T02:51:49.705Z,38.40
2023-04-29T02:56:53.822Z,40.92
2023-04-29T03:01:57.018Z,40.92
2023-04-29T03:06:59.715Z,35.92
2023-04-29T03:12:03.965Z,36.60
2023-04-29T03:17:06.682Z,33.53
2023-04-29T03:22:10.596Z,34.65
2023-04-29T03:27:14.483Z,36.22
2023-04-29T03:32:17.079Z,40.42
2023-04-29T03:37:19.681Z,35.50
2023-04-29T03:42:23.669Z,35.03
2023-04-29T03:47:26.284Z,33.88
2023-04-29T03:52:29.453Z,35.67
2023-04-29T03:57:33.426Z,35.92
2023-04-29T04:02:36.344Z,33.00
2023-04-29T04:07:39.058Z,35.72
2023-04-29T04:12:44.252Z,35.53
2023-04-29T04:17:47.072Z,36.58
2023-04-29T04:22:49.765Z,37.90
2023-04-29T04:27:54.453Z,37.40
2023-04-29T04:32:57.138Z,33.75
2023-04-29T04:37:59.815Z,36.40
2023-04-29T04:43:03.784Z,39.40
2023-04-29T04:48:06.978Z,38.92
2023-04-29T04:53:09.658Z,38.33
2023-04-29T04:58:13.585Z,38.33
2023-04-29T05:03:16.881Z,37.42
2023-04-29T05:13:25.402Z,37.63
2023-04-29T05:18:28.051Z,39.60
2023-04-29T05:23:31.082Z,36.83
2023-04-29T05:28:35.015Z,32.15
2023-04-29T05:33:37.895Z,34.92
2023-04-29T05:38:40.821Z,36.42
2023-04-29T05:43:44.823Z,36.60
2023-04-29T05:48:47.435Z,35.60
2023-04-29T05:53:50.066Z,30.80
2023-04-29T05:58:54.035Z,31.80
2023-04-29T06:03:56.947Z,36.60
2023-04-29T06:09:01.819Z,31.38
2023-04-29T06:14:05.774Z,31.00
2023-04-29T06:19:08.403Z,33.00
2023-04-29T06:24:10.967Z,29.67
2023-04-29T06:29:14.838Z,31.10
2023-04-29T06:34:17.440Z,32.45
2023-04-29T06:39:19.982Z,26.20
2023-04-29T06:44:23.978Z,29.37
2023-04-29T06:49:26.717Z,24.00
2023-04-29T06:54:29.608Z,26.00
2023-04-29T06:59:33.759Z,25.75
2023-04-29T07:04:37.572Z,22.33
2023-04-29T07:09:40.378Z,21.92
2023-04-29T07:14:44.319Z,23.10
2023-04-29T07:19:47.021Z,23.30
2023-04-29T07:24:49.697Z,22.63
2023-04-29T07:29:53.606Z,25.27
2023-04-29T07:34:56.282Z,25.00
2023-04-29T07:39:58.818Z,20.40
2023-04-29T07:45:03.292Z,19.10
2023-04-29T07:50:06.850Z,19.50
2023-04-29T07:55:10.173Z,25.52
2023-04-29T08:05:17.359Z,21.30
2023-04-29T08:10:22.445Z,18.70
2023-04-29T08:15:26.835Z,18.70
2023-04-29T08:20:29.480Z,21.15
2023-04-29T08:25:32.095Z,14.63
2023-04-29T08:30:38.898Z,19.27
2023-04-29T08:35:42.065Z,14.88
2023-04-29T08:45:51.074Z,15.80
2023-04-29T08:50:53.820Z,14.82
2023-04-29T08:55:59.648Z,15.98
2023-04-29T09:01:04.038Z,14.63
2023-04-29T09:06:07.618Z,11.23
2023-04-29T09:11:11.798Z,11.45
2023-04-29T09:16:15.854Z,14.60
2023-04-29T09:21:22.327Z,10.57
2023-04-29T09:26:25.907Z,10.55
2023-04-29T09:31:29.926Z,11.27
2023-04-29T09:36:45.000Z,11.05
2023-04-29T09:42:02.721Z,8.23
2023-04-29T09:47:08.037Z,9.52
2023-04-29T09:52:12.385Z,11.15
2023-04-29T09:57:15.983Z,10.63
2023-04-29T10:02:20.264Z,9.07
2023-04-29T10:07:23.528Z,10.68
2023-04-29T10:12:27.307Z,9.80
2023-04-29T10:17:37.532Z,9.02
2023-04-29T10:22:47.100Z,9.13
2023-04-29T10:27:53.286Z,8.85
2023-04-29T10:32:58.585Z,9.18
2023-04-29T10:38:09.532Z,9.02
2023-04-29T10:43:12.380Z,10.10
2023-04-29T10:48:18.846Z,7.22
2023-04-29T10:53:22.067Z,7.45
2023-04-29T10:58:44.402Z,8.07
2023-04-29T11:03:54.750Z,8.05
2023-04-29T11:09:03.271Z,8.20
2023-04-29T11:14:05.858Z,8.50
2023-04-29T11:19:12.378Z,10.45
2023-04-29T11:24:17.344Z,8.70
2023-04-29T11:29:21.361Z,7.32
2023-04-29T11:34:27.630Z,10.00
2023-04-29T11:39:30.279Z,9.95
2023-04-29T11:44:35.674Z,5.30
2023-04-29T11:49:39.648Z,5.35
2023-04-29T11:54:42.309Z,4.93
2023-04-29T12:04:48.992Z,6.10
2023-04-29T12:09:51.919Z,6.53
2023-04-29T12:14:55.593Z,7.05
2023-04-29T12:20:00.069Z,8.18
2023-04-29T12:25:04.601Z,4.82
2023-04-29T12:30:09.473Z,4.80
2023-04-29T12:35:22.254Z,4.38
2023-04-29T12:40:25.562Z,4.97
2023-04-29T12:45:30.598Z,3.90
2023-04-29T12:50:36.426Z,4.78
2023-04-29T12:55:40.084Z,3.22
2023-04-29T13:00:42.656Z,4.97
2023-04-29T13:10:49.905Z,4.00
2023-04-29T13:15:52.528Z,3.75
2023-04-29T13:31:01.330Z,4.65
2023-04-29T13:41:11.522Z,3.70
2023-04-29T13:46:20.944Z,4.10
2023-04-29T13:52:03.902Z,8.63
2023-04-29T14:07:00.066Z,2.72
2023-04-29T14:12:02.788Z,3.47
2023-04-29T14:22:09.539Z,4.97
2023-04-29T14:27:12.185Z,4.18
2023-04-29T14:32:14.771Z,3.08
2023-04-29T14:37:18.793Z,3.97
2023-04-29T14:42:21.354Z,4.47
2023-04-29T14:47:24.527Z,7.97
2023-04-29T14:52:29.668Z,3.83
2023-04-29T14:57:32.299Z,6.13
2023-04-29T15:02:35.037Z,4.82
2023-04-29T15:07:39.261Z,3.75
2023-04-29T15:12:41.839Z,3.47
2023-04-29T15:17:44.732Z,4.90
2023-04-29T15:27:51.708Z,8.45
2023-04-29T15:37:59.306Z,4.68
2023-04-29T15:43:01.880Z,5.03
2023-04-29T15:48:04.908Z,3.83
2023-04-29T15:53:08.920Z,6.50
2023-04-29T15:58:11.583Z,6.15
2023-04-29T16:03:14.260Z,3.83
2023-04-29T16:08:18.243Z,4.70
2023-04-29T16:13:20.858Z,3.63
2023-04-29T16:18:23.454Z,2.67
2023-04-29T16:23:27.317Z,4.40
2023-04-29T16:28:29.904Z,4.60
2023-04-29T16:33:32.517Z,3.85
2023-04-29T16:38:37.503Z,4.93
2023-04-29T16:43:40.103Z,3.15
2023-04-29T16:48:42.735Z,4.28
2023-04-29T16:53:46.914Z,4.50
2023-04-29T16:58:49.681Z,4.72
2023-04-29T17:03:52.433Z,2.28
2023-04-29T17:13:59.245Z,5.43
2023-04-29T17:19:01.886Z,2.75
2023-04-29T17:24:06.168Z,2.55
2023-04-29T17:29:09.062Z,2.40
2023-04-29T17:39:23.094Z,1.75
2023-04-29T17:44:26.055Z,1.52
2023-04-29T17:49:28.713Z,2.30
2023-04-29T17:54:32.868Z,3.60
2023-04-29T17:59:35.939Z,2.13
2023-04-29T18:04:40.613Z,2.42
2023-04-29T18:09:44.658Z,3.13
2023-04-29T18:14:48.718Z,2.17
2023-04-29T18:19:51.394Z,3.90
2023-04-29T18:24:56.309Z,6.63
2023-04-29T18:30:00.572Z,5.75
2023-04-29T18:35:03.952Z,5.35
2023-04-29T18:45:11.220Z,5.72
2023-04-29T18:50:14.091Z,7.83
2023-04-29T18:55:18.177Z,8.40
2023-04-29T19:00:21.831Z,8.50
2023-04-29T19:05:24.606Z,7.85
2023-04-29T19:10:28.593Z,10.25
2023-04-29T19:15:32.116Z,8.32
2023-04-29T19:20:35.430Z,9.65
2023-04-29T19:25:39.368Z,10.18
2023-04-29T19:30:42.134Z,10.20
2023-04-29T19:35:44.869Z,9.57
2023-04-29T19:40:48.971Z,9.43
2023-04-29T19:45:51.579Z,8.77
2023-04-29T19:50:54.232Z,7.80
2023-04-29T19:55:58.096Z,10.87
2023-04-29T20:01:00.753Z,9.23
2023-04-29T20:06:04.111Z,9.97
2023-04-29T20:11:08.209Z,7.88
2023-04-29T20:16:11.228Z,9.23
2023-04-29T20:21:14.108Z,11.10
2023-04-29T20:26:19.671Z,11.90
2023-04-29T20:31:22.534Z,11.65
2023-04-29T20:36:26.253Z,11.40
2023-04-29T20:46:32.755Z,11.90
2023-04-29T20:51:35.399Z,9.60
2023-04-29T20:56:39.325Z,11.15
2023-04-29T21:01:42.095Z,11.90
2023-04-29T21:06:44.954Z,13.17
2023-04-29T21:11:49.246Z,16.20
2023-04-29T21:16:51.947Z,11.20
2023-04-29T21:21:54.549Z,11.10
2023-04-29T21:26:58.482Z,12.00
2023-04-29T21:32:01.113Z,15.15
2023-04-29T21:37:03.656Z,12.30
2023-04-29T21:42:07.699Z,14.80
2023-04-29T21:47:10.324Z,13.32
2023-04-29T21:52:13.307Z,11.87
2023-04-29T21:57:17.261Z,11.88
2023-04-29T22:02:24.964Z,11.43
2023-04-29T22:07:27.617Z,17.20
2023-04-29T22:12:31.605Z,13.43
2023-04-29T22:17:34.209Z,13.02
2023-04-29T22:22:36.919Z,12.17
2023-04-29T22:27:40.829Z,15.23
2023-04-29T22:32:43.413Z,18.85
2023-04-29T22:37:46.093Z,16.15
2023-04-29T22:42:50.016Z,22.40
2023-04-29T22:47:52.691Z,26.85
2023-04-29T22:52:55.311Z,19.30
2023-04-29T22:57:59.236Z,13.93
2023-04-29T23:03:01.949Z,14.40
2023-04-29T23:08:05.380Z,15.67
2023-04-29T23:13:09.356Z,19.98
2023-04-29T23:18:12.108Z,16.33
2023-04-29T23:23:14.767Z,14.10
2023-04-29T23:28:18.757Z,15.70
2023-04-29T23:33:21.501Z,14.73
2023-04-29T23:38:24.074Z,20.40
2023-04-29T23:43:27.998Z,17.63
2023-04-29T23:48:31.015Z,20.42
2023-04-29T23:53:33.646Z,23.75
2023-04-29T23:58:37.600Z,18.65
